North White Plains, New York
Current Conditions -  °F | °C
As of 3:56 PM on Sunday 21 Dec 2014 (Local Time) from KHPN Reporting Station
Overcast Overcast  
Wind Chill: 27°   Ceiling: 1600
Heat Index: 33°   Visibility: 9mi
Dew Point: 29°   Wind: 7mph
Humidity: 85%   Direction: 320°NW
Pressure: 30.27"   Gusts: NA
Location:  41.0597°N, 73.7747°W
Report Text: KHPN 212056Z 32006KT 9SM FEW008 BKN016 OVC020 01/M02 A3027 RMK AO2 SLP259 60000 T00061017 53003
Loading
Personal Weather Stations






























Interactive Weather Map New forecast layout! Learn more

10-Day Weather Forecast

Advertisements
Track Severe Weather on mobile